createdAt,value
2022-07-28T00:00:23.960Z,20.38
2022-07-28T00:05:28.577Z,20.22
2022-07-28T00:10:32.553Z,20.12
2022-07-28T00:15:36.106Z,19.97
2022-07-28T00:20:39.416Z,19.88
2022-07-28T00:25:43.086Z,19.62
2022-07-28T00:30:46.382Z,19.61
2022-07-28T00:35:49.369Z,19.53
2022-07-28T00:41:11.782Z,19.37
2022-07-28T00:46:17.402Z,19.40
2022-07-28T00:51:24.444Z,19.37
2022-07-28T00:56:27.608Z,19.34
2022-07-28T01:01:31.545Z,19.31
2022-07-28T01:07:06.654Z,19.33
2022-07-28T01:12:40.802Z,19.41
2022-07-28T01:18:04.445Z,19.38
2022-07-28T01:23:32.129Z,19.36
2022-07-28T01:28:56.217Z,19.38
2022-07-28T01:34:04.794Z,19.30
2022-07-28T01:39:08.031Z,19.17
2022-07-28T01:44:16.177Z,19.12
2022-07-28T01:49:23.572Z,19.14
2022-07-28T01:54:29.270Z,19.07
2022-07-28T01:59:33.647Z,19.07
2022-07-28T02:04:39.863Z,18.94
2022-07-28T02:09:46.355Z,18.81
2022-07-28T02:14:51.150Z,18.86
2022-07-28T02:19:56.719Z,18.85
2022-07-28T02:25:00.305Z,18.81
2022-07-28T02:30:27.679Z,18.82
2022-07-28T02:35:33.746Z,18.84
2022-07-28T02:40:43.953Z,18.73
2022-07-28T02:45:48.596Z,18.73
2022-07-28T02:50:55.678Z,18.65
2022-07-28T02:55:59.812Z,18.50
2022-07-28T03:01:03.739Z,18.40
2022-07-28T03:06:07.250Z,18.39
2022-07-28T03:11:14.860Z,18.58
2022-07-28T03:16:18.306Z,18.51
2022-07-28T03:21:21.791Z,18.37
2022-07-28T03:26:41.651Z,18.34
2022-07-28T03:31:48.439Z,18.32
2022-07-28T03:36:57.714Z,18.06
2022-07-28T03:42:03.224Z,18.07
2022-07-28T03:47:08.724Z,18.02
2022-07-28T03:52:12.678Z,18.15
2022-07-28T03:57:16.397Z,18.07
2022-07-28T04:02:19.467Z,18.19
2022-07-28T04:07:23.025Z,18.15
2022-07-28T04:12:26.697Z,18.02
2022-07-28T04:17:30.637Z,18.11
2022-07-28T04:22:34.122Z,18.15
2022-07-28T04:27:37.903Z,18.19
2022-07-28T04:32:41.488Z,18.26
2022-07-28T04:37:45.077Z,18.35
2022-07-28T04:42:48.572Z,18.57
2022-07-28T04:47:52.125Z,18.81
2022-07-28T04:52:55.281Z,19.01
2022-07-28T04:57:58.676Z,19.27
2022-07-28T05:03:03.854Z,19.61
2022-07-28T05:08:07.953Z,20.12
2022-07-28T05:13:11.279Z,20.55
2022-07-28T05:18:14.836Z,20.85
2022-07-28T05:23:17.979Z,21.25
2022-07-28T05:28:21.110Z,21.51
2022-07-28T05:33:24.244Z,22.00
2022-07-28T05:38:34.720Z,22.52
2022-07-28T05:43:38.801Z,22.84
2022-07-28T05:48:41.917Z,23.17
2022-07-28T05:53:45.381Z,23.41
2022-07-28T05:58:49.611Z,23.67
2022-07-28T06:04:10.011Z,23.91
2022-07-28T06:09:17.238Z,24.03
2022-07-28T06:14:21.345Z,24.21
2022-07-28T06:19:25.291Z,24.52
2022-07-28T06:50:59.951Z,32.71
2022-07-28T06:56:05.611Z,33.87
2022-07-28T07:01:09.486Z,32.87
2022-07-28T07:06:13.022Z,32.45
2022-07-28T07:11:16.856Z,32.35
2022-07-28T07:16:20.821Z,33.04
2022-07-28T07:21:24.445Z,32.78
2022-07-28T07:26:29.450Z,32.46
2022-07-28T07:31:39.885Z,32.22
2022-07-28T07:36:43.688Z,33.17
2022-07-28T07:41:47.217Z,32.88
2022-07-28T07:46:50.400Z,33.01
2022-07-28T07:51:53.489Z,33.14
2022-07-28T07:56:56.601Z,33.01
2022-07-28T08:01:59.703Z,33.20
2022-07-28T08:07:03.389Z,32.84
2022-07-28T08:12:09.815Z,32.25
2022-07-28T08:17:13.824Z,32.70
2022-07-28T08:22:17.703Z,31.77
2022-07-28T08:27:21.848Z,32.72
2022-07-28T08:32:24.951Z,33.30
2022-07-28T08:37:28.031Z,32.91
2022-07-28T08:42:47.396Z,32.27
2022-07-28T08:48:07.658Z,32.46
2022-07-28T08:53:12.100Z,33.34
2022-07-28T08:58:18.290Z,33.23
2022-07-28T09:03:22.065Z,34.00
2022-07-28T09:08:26.083Z,33.69
2022-07-28T09:13:30.080Z,34.34
2022-07-28T09:18:33.761Z,35.27
2022-07-28T09:23:48.342Z,33.79
2022-07-28T09:28:53.140Z,33.77
2022-07-28T09:34:06.725Z,33.52
2022-07-28T09:39:10.225Z,33.51
2022-07-28T09:44:21.277Z,33.16
2022-07-28T09:49:44.598Z,31.89
2022-07-28T09:55:14.544Z,31.11
2022-07-28T10:00:30.602Z,31.53
2022-07-28T10:05:41.688Z,32.58
2022-07-28T10:10:59.744Z,34.07
2022-07-28T10:16:13.220Z,32.88
2022-07-28T10:21:19.070Z,33.05
2022-07-28T10:26:38.047Z,34.04
2022-07-28T10:31:55.609Z,33.93
2022-07-28T10:37:02.903Z,34.53
2022-07-28T10:42:11.087Z,35.36
2022-07-28T10:47:18.434Z,34.38
2022-07-28T10:52:46.658Z,33.55
2022-07-28T10:58:10.945Z,34.86
2022-07-28T11:03:40.766Z,35.87
2022-07-28T11:08:44.254Z,35.03
2022-07-28T11:13:51.755Z,35.51
2022-07-28T11:19:40.330Z,34.69
2022-07-28T11:24:58.282Z,35.65
2022-07-28T11:30:02.217Z,34.01
2022-07-28T11:35:10.993Z,34.44
2022-07-28T11:40:30.392Z,35.86
2022-07-28T11:45:38.494Z,35.61
2022-07-28T11:51:04.919Z,35.07
2022-07-28T11:56:10.677Z,36.03
2022-07-28T12:01:17.965Z,36.86
2022-07-28T12:06:35.530Z,35.77
2022-07-28T12:11:41.900Z,36.08
2022-07-28T12:16:49.912Z,36.47
2022-07-28T12:21:58.391Z,36.57
2022-07-28T12:27:04.127Z,36.82
2022-07-28T12:32:12.398Z,36.71
2022-07-28T12:37:16.173Z,36.29
2022-07-28T12:42:20.510Z,36.15
2022-07-28T12:47:28.436Z,34.76
2022-07-28T12:52:31.568Z,33.81
2022-07-28T12:57:50.547Z,32.28
2022-07-28T13:02:57.541Z,30.52
2022-07-28T13:08:03.801Z,30.35
2022-07-28T13:13:09.241Z,29.75
2022-07-28T13:18:12.784Z,28.85
2022-07-28T13:23:16.033Z,28.21
2022-07-28T13:28:28.956Z,27.40
2022-07-28T13:33:32.454Z,26.74
2022-07-28T13:38:35.770Z,26.22
2022-07-28T13:43:39.892Z,26.02
2022-07-28T13:48:58.215Z,25.93
2022-07-28T13:54:04.177Z,25.63
2022-07-28T13:59:08.804Z,25.61
2022-07-28T14:04:17.026Z,25.09
2022-07-28T14:09:21.746Z,24.61
2022-07-28T14:14:25.746Z,24.47
2022-07-28T14:19:39.649Z,24.52
2022-07-28T14:24:43.146Z,24.50
2022-07-28T14:29:47.349Z,24.46
2022-07-28T14:34:51.037Z,24.44
2022-07-28T14:39:56.952Z,24.49
2022-07-28T14:45:02.571Z,24.77
2022-07-28T14:50:05.763Z,25.75
2022-07-28T14:55:10.382Z,26.89
2022-07-28T15:00:16.048Z,27.56
2022-07-28T15:05:19.593Z,27.84
2022-07-28T15:10:24.165Z,28.16
2022-07-28T15:15:27.965Z,28.82
2022-07-28T15:20:31.801Z,29.05
2022-07-28T15:25:35.606Z,29.02
2022-07-28T15:30:49.119Z,29.15
2022-07-28T15:35:57.927Z,28.90
2022-07-28T15:41:04.068Z,28.90
2022-07-28T15:46:10.958Z,28.95
2022-07-28T15:51:15.022Z,28.70
2022-07-28T15:56:18.176Z,28.61
2022-07-28T16:01:23.555Z,28.50
2022-07-28T16:06:48.220Z,28.13
2022-07-28T16:11:51.768Z,27.78
2022-07-28T16:16:55.355Z,27.51
2022-07-28T16:22:00.613Z,27.14
2022-07-28T16:27:05.343Z,26.86
2022-07-28T16:32:11.949Z,26.31
2022-07-28T16:37:19.627Z,25.98
2022-07-28T16:42:25.933Z,25.86
2022-07-28T16:47:31.743Z,25.55
2022-07-28T16:52:37.410Z,25.51
2022-07-28T16:57:41.416Z,25.42
2022-07-28T17:02:46.600Z,25.30
2022-07-28T17:07:52.147Z,25.24
2022-07-28T17:12:56.725Z,25.26
2022-07-28T17:18:00.806Z,24.90
2022-07-28T17:23:05.680Z,24.76
2022-07-28T17:28:09.597Z,24.59
2022-07-28T17:33:13.406Z,24.28
2022-07-28T17:38:28.264Z,24.06
2022-07-28T17:43:35.926Z,23.91
2022-07-28T17:48:40.752Z,23.78
2022-07-28T17:53:46.557Z,23.54
2022-07-28T17:58:51.334Z,23.33
2022-07-28T18:04:00.426Z,22.98
2022-07-28T18:09:11.128Z,23.02
2022-07-28T18:14:15.763Z,22.82
2022-07-28T18:19:21.767Z,22.58
2022-07-28T18:24:26.853Z,22.51
2022-07-28T18:29:37.987Z,22.39
2022-07-28T18:34:45.582Z,22.33
2022-07-28T18:39:48.975Z,22.48
2022-07-28T18:44:52.007Z,22.20
2022-07-28T18:49:58.897Z,22.05
2022-07-28T18:55:02.676Z,21.97
2022-07-28T19:00:12.066Z,21.83
2022-07-28T19:05:15.493Z,21.70
2022-07-28T19:10:18.679Z,21.63
2022-07-28T19:15:21.840Z,21.55
2022-07-28T19:20:24.910Z,21.44
2022-07-28T19:25:30.635Z,21.38
2022-07-28T19:30:35.294Z,21.33
2022-07-28T19:35:39.194Z,21.32
2022-07-28T19:40:43.566Z,21.20
2022-07-28T19:45:47.133Z,21.06
2022-07-28T19:50:52.607Z,21.08
2022-07-28T19:55:56.932Z,21.01
2022-07-28T20:01:00.424Z,20.97
2022-07-28T20:06:04.315Z,20.92
2022-07-28T20:11:08.554Z,20.78
2022-07-28T20:16:11.734Z,20.70
2022-07-28T20:21:15.186Z,20.84
2022-07-28T20:26:23.828Z,21.05
2022-07-28T20:31:30.929Z,21.07
2022-07-28T20:36:35.919Z,20.84
2022-07-28T20:41:39.427Z,20.90
2022-07-28T20:46:43.476Z,21.12
2022-07-28T20:51:50.876Z,21.18
2022-07-28T20:56:54.535Z,21.17
2022-07-28T21:01:58.409Z,21.13
2022-07-28T21:07:04.125Z,21.14
2022-07-28T21:12:07.857Z,21.05
2022-07-28T21:17:11.043Z,21.11
2022-07-28T21:22:14.262Z,20.91
2022-07-28T21:27:18.129Z,20.96
2022-07-28T21:32:21.782Z,20.91
2022-07-28T21:37:25.941Z,20.89
2022-07-28T21:42:30.006Z,20.90
2022-07-28T21:47:34.337Z,20.93
2022-07-28T21:52:40.052Z,20.75
2022-07-28T21:57:44.118Z,20.49
2022-07-28T22:02:48.105Z,20.31
2022-07-28T22:07:53.519Z,19.86
2022-07-28T22:12:59.871Z,20.14
2022-07-28T22:18:03.362Z,20.26
2022-07-28T22:23:11.607Z,20.17
2022-07-28T22:28:30.776Z,19.81
2022-07-28T22:33:34.441Z,20.03
2022-07-28T22:38:38.047Z,20.15
2022-07-28T22:43:42.273Z,19.68
2022-07-28T22:48:45.449Z,19.82
2022-07-28T22:53:48.593Z,19.61
2022-07-28T22:58:52.429Z,19.55
2022-07-28T23:03:55.649Z,19.38
2022-07-28T23:08:59.596Z,19.09
2022-07-28T23:14:03.364Z,18.82
2022-07-28T23:19:06.514Z,19.00
2022-07-28T23:24:10.630Z,18.90
2022-07-28T23:29:14.016Z,18.78
2022-07-28T23:34:18.530Z,18.72
2022-07-28T23:39:22.715Z,18.68
2022-07-28T23:44:25.956Z,18.58
2022-07-28T23:49:29.365Z,18.44
2022-07-28T23:54:33.380Z,18.33
2022-07-28T23:59:37.495Z,18.22
